La Isla, Colorado
Current Conditions -  °F | °C
As of 3:52 PM on Thursday 23 Oct 2014 (Local Time) from KALS Reporting Station
Clear Clear  
Wind Chill: 66°   Ceiling: Unl
Heat Index: 66°   Visibility: 10mi
Dew Point: 26°   Wind: 5mph
Humidity: 22%   Direction: NA
Pressure: 30.28"   Gusts: NA
Location:  37.1816°N, 106.262°W
Report Text: KALS 232152Z AUTO VRB04KT 10SM CLR 19/M03 A3028 RMK AO2 SLP200 T01891033
Loading
Personal Weather Stations






























Interactive Weather Map
Tropical Storm Tracking
New forecast layout! Learn more

10-Day Weather Forecast

Advertisements
Track Severe Weather on mobile